Página principal
METAR-TAF:

METAR-TAF

Aeroportos :

Valladolid, Espanha

latitude: 41-43N, longitude: 004-51W, altura: 849 m

Observação actual do tempo

O boletim foi feito há 8 horas e 17 minutos, às 20:30 UTC
Vento 16 kt de es-nordeste
Temperatura 1°C
Humidade 69%
Pressão 1012 hPa
Visibilidade 10 km ou mais
sem nuvens abaixo de 1500 metros e sem cumulonimbus

METAR: LEVD 212030Z 07016KT CAVOK 01/M04 Q1012

Hora: 05:47 (04:47 UTC)

Previsão

O boletim foi feito há 5 horas e 47 minutos, às 23:00 UTC
Previsão válida de 22 às 00 UTC a 22 às 24 UTC
Vento 12 kt de nordeste
Visibilidade 10 km ou mais
sem nuvens abaixo de 1500 metros e sem cumulonimbus
Temporariamente
de 22 às 05 UTC a 22 às 12 UTC
Vento 5 kt de nordeste

TAF: LEVD 212300Z 2200/2224 04012KT CAVOK TX07/2215Z TNM02/2205Z TEMPO 2205/2212 04005KT

Observações e previsões do tempo de mais de 4000 aeroportos (mensagens METAR e TAF).

As estações disponíveis são os pontos amarelos e vermelhos sobre o mapa.

Mova o rato sobre o mapa para ver o nome da estação.

Depois clique no ponto para visualizar as observações e previsões meteorológicas.

Para alterar o mapa : clique nos botões verdes com uma cruz preta para aumentar o zoom; no botão verde com uma pitada de zoom; ou nas setas verdes para mapas adjacentes.


METAR-TAF: